메인 페이지
METAR-TAF:

METAR-TAF

공항 :

리우데자네이루 갈레앙 국제공항, 리우데자네이루, 브라질

위도: 22-49S, 경도: 043-15W, 고도: 6m

현재 날씨관측

예보는 53분 전, 22:00시(UTC)에 발표되었습니다.
11kt
온도 25°C
습도 79%
기압 1015 hPa
시정 10km 이상
고도 3000ft 상공 구름 조금

METAR: SBGL 142200Z 10011KT 9999 FEW030 25/21 Q1015

시각: 19:53 (22:53 UTC)

예보

예보는 6 시간 18분 전, 16:35시(UTC)에 발표되었습니다.
예보 대상 시간: 14일 18시부터 15일 24시까지 (UTC)
남동10kt
시정 10km 이상
고도 2500ft 상공 구름 조금
전환 중
15일 02시부터 15일 04시까지 (UTC)
동북동5kt
확률 40%
15일 09시부터 15일 12시까지 (UTC)
시정: 4000m
고도 1300ft 상공 구름 보통
박무
전환 중
15일 15시부터 15일 18시까지 (UTC)
남동10kt

TAF: SBGL 141635Z 1418/1524 13010KT 9999 FEW025 TN24/1509Z TX30/1515Z BECMG 1502/1504 07005KT PROB40 1509/1512 4000 BR SCT013 BECMG 1515/1518 14010KT RMK PGA

4,000개 이상의 공항 관측 자료 및 예보 (METAR 및 TAF 보고).

지도상에서 검색 가능한 기상관측소가 노란 점과 빨간 점으로 표시되어 있습니다.

기상관측소 명을 보려면 표시 위로 마우스를 이동하세요.

날씨 관측과 예보를 보려면 클릭하세요.

지도 변경 : 확대하려면 엑스 표시가 있는 녹색 버튼, 축소하려면 빼기 표시가 있는 녹색 버튼, 다음 페이지의 지도를 보려면 녹색 화살표를 클릭하세요.


METAR-TAF: